Time;durP1;ratioP1;P1;durP2;ratioP2;P2;SDS_P1;SDS_P2;PMS_P1;PMS_P2;Temp;Humidity;BMP_temperature;BMP_pressure;BME280_temperature;BME280_humidity;BME280_pressure;Samples;Min_cycle;Max_cycle;Signal;HPM_P1;HPM_P2
2021/10/04 00:00:55;;;;;;;54.60;21.92;;;;;;;7.91;78.38;101327.94;5026345;28;20135;-60
2021/10/04 00:03:21;;;;;;;50.60;20.98;;;;;;;7.91;78.26;101335.69;5031078;28;20126;-60
2021/10/04 00:05:47;;;;;;;47.97;21.38;;;;;;;7.85;78.42;101334.84;5031147;28;20042;-59
2021/10/04 00:08:12;;;;;;;51.88;22.65;;;;;;;7.88;78.64;101332.25;5029690;28;20048;-59
2021/10/04 00:10:38;;;;;;;48.13;22.38;;;;;;;7.86;78.73;101336.53;5014410;28;20136;-60
2021/10/04 00:13:04;;;;;;;50.05;22.05;;;;;;;7.86;78.67;101332.22;5010388;28;20062;-60
2021/10/04 00:15:31;;;;;;;53.10;20.67;;;;;;;7.78;78.23;101330.50;5009841;28;20046;-60
2021/10/04 00:17:58;;;;;;;51.72;22.23;;;;;;;7.84;78.27;101344.31;5011302;28;20046;-59
2021/10/04 00:20:25;;;;;;;52.08;22.08;;;;;;;7.80;78.27;101347.75;5015572;28;20037;-59
2021/10/04 00:22:50;;;;;;;54.10;21.52;;;;;;;7.77;78.36;101345.16;5020065;28;20036;-60
2021/10/04 00:25:16;;;;;;;49.65;21.63;;;;;;;7.74;78.70;101345.16;5010971;28;20037;-61
2021/10/04 00:27:42;;;;;;;50.35;21.48;;;;;;;7.73;78.58;101340.84;5010919;28;20073;-59
2021/10/04 00:30:08;;;;;;;46.67;20.17;;;;;;;7.77;78.41;101352.94;5010893;28;20053;-60
2021/10/04 00:32:37;;;;;;;46.30;21.50;;;;;;;7.79;78.05;101346.03;5017742;28;20067;-59
2021/10/04 00:35:03;;;;;;;47.53;20.55;;;;;;;7.82;77.79;101350.34;5029250;28;20060;-60
2021/10/04 00:37:30;;;;;;;50.28;21.20;;;;;;;7.82;77.59;101350.34;5029026;28;20603;-59
2021/10/04 00:39:55;;;;;;;46.78;20.88;;;;;;;7.79;77.94;101346.03;5030637;28;20049;-60
2021/10/04 00:42:22;;;;;;;45.05;20.63;;;;;;;7.76;77.96;101343.41;5030878;28;20029;-60
2021/10/04 00:44:49;;;;;;;47.08;20.40;;;;;;;7.75;78.52;101343.41;5027844;28;20142;-59
2021/10/04 00:47:16;;;;;;;47.70;21.67;;;;;;;7.73;78.30;101345.16;5027152;28;20065;-59
2021/10/04 00:49:42;;;;;;;47.72;20.83;;;;;;;7.69;78.02;101354.63;5010552;28;20184;-60
2021/10/04 00:52:08;;;;;;;45.15;20.20;;;;;;;7.68;78.34;101357.22;5010831;28;20034;-59
2021/10/04 00:54:34;;;;;;;44.28;19.95;;;;;;;7.64;78.37;101344.22;5009906;28;20037;-60
2021/10/04 00:57:00;;;;;;;48.55;20.40;;;;;;;7.64;78.38;101354.59;5029520;28;20176;-59
2021/10/04 00:59:26;;;;;;;51.78;21.88;;;;;;;7.61;78.45;101348.53;5026679;28;20120;-60
2021/10/04 01:01:52;;;;;;;50.22;20.95;;;;;;;7.58;78.53;101354.59;5030389;28;20119;-59
2021/10/04 01:04:18;;;;;;;47.25;20.83;;;;;;;7.51;78.44;101337.28;5028786;28;20053;-60
2021/10/04 01:06:43;;;;;;;51.30;21.40;;;;;;;7.51;78.69;101344.19;5011679;28;20037;-59
2021/10/04 01:09:09;;;;;;;53.50;22.80;;;;;;;7.50;78.79;101345.91;5010405;28;20076;-59
2021/10/04 01:11:35;;;;;;;48.92;20.60;;;;;;;7.47;78.82;101347.63;5010459;28;20425;-59
2021/10/04 01:14:00;;;;;;;52.75;22.00;;;;;;;7.46;78.77;101356.22;5018757;28;20501;-61
2021/10/04 01:16:26;;;;;;;46.80;19.85;;;;;;;7.45;78.73;101354.50;5030172;28;20037;-60
2021/10/04 01:18:52;;;;;;;43.25;18.85;;;;;;;7.44;77.98;101357.94;5030066;28;20069;-59
2021/10/04 01:21:17;;;;;;;39.90;19.20;;;;;;;7.45;77.20;101357.09;5028808;28;20037;-61
2021/10/04 01:23:44;;;;;;;46.28;19.27;;;;;;;7.47;76.71;101357.97;5028383;28;20114;-60
2021/10/04 01:26:11;;;;;;;46.03;18.75;;;;;;;7.40;76.39;101343.25;5028688;28;20037;-60
2021/10/04 01:28:37;;;;;;;52.97;21.58;;;;;;;7.52;76.49;101361.44;5028633;28;20466;-58
2021/10/04 01:31:03;;;;;;;47.08;20.88;;;;;;;7.52;76.75;101359.72;5030053;28;20084;-58
2021/10/04 01:33:29;;;;;;;45.88;20.20;;;;;;;7.51;77.16;101370.06;5028734;28;20373;-59
2021/10/04 01:35:55;;;;;;;51.65;21.50;;;;;;;7.48;77.21;101357.13;5027271;28;20093;-59
2021/10/04 01:38:20;;;;;;;48.38;19.83;;;;;;;7.46;77.64;101367.47;5010241;28;20037;-60
2021/10/04 01:40:46;;;;;;;49.53;19.98;;;;;;;7.42;77.44;101365.72;5016490;28;20072;-59
2021/10/04 01:43:13;;;;;;;42.78;19.63;;;;;;;7.42;77.75;101363.13;5029828;28;20041;-58
2021/10/04 01:45:38;;;;;;;41.17;19.00;;;;;;;7.31;78.28;101356.16;5016427;28;20037;-60
2021/10/04 01:48:05;;;;;;;48.60;20.65;;;;;;;7.37;78.63;101369.13;5029394;28;20071;-59
2021/10/04 01:50:33;;;;;;;44.22;20.33;;;;;;;7.33;78.63;101368.22;5029386;28;20454;-57
2021/10/04 01:52:58;;;;;;;43.20;20.58;;;;;;;7.29;78.66;101369.06;5028899;28;20420;-59
2021/10/04 01:55:24;;;;;;;48.53;19.88;;;;;;;7.27;78.99;101363.03;5020075;28;20037;-59
2021/10/04 01:57:51;;;;;;;48.00;20.20;;;;;;;7.23;79.39;101369.03;5029602;28;20045;-59
2021/10/04 02:00:19;;;;;;;52.63;19.88;;;;;;;7.20;79.36;101367.31;5025570;28;20145;-58
2021/10/04 02:02:49;;;;;;;42.45;19.00;;;;;;;7.19;79.77;101367.28;5029626;28;20468;-60
2021/10/04 02:05:15;;;;;;;45.85;19.73;;;;;;;7.17;79.58;101366.44;5011812;28;20571;-59
2021/10/04 02:07:41;;;;;;;39.53;18.85;;;;;;;7.16;79.46;101362.97;5017152;28;20049;-60
2021/10/04 02:10:10;;;;;;;48.97;18.50;;;;;;;7.13;79.73;101364.66;5009790;28;20046;-59
2021/10/04 02:12:36;;;;;;;43.88;19.40;;;;;;;7.15;79.79;101369.00;5008668;28;20041;-59
2021/10/04 02:15:03;;;;;;;47.63;20.02;;;;;;;7.13;79.38;101368.13;5009942;28;20125;-59
2021/10/04 02:17:31;;;;;;;43.50;18.63;;;;;;;7.12;79.53;101368.09;5009747;28;20045;-60
2021/10/04 02:19:57;;;;;;;42.55;18.50;;;;;;;7.13;79.18;101370.69;5021481;28;20556;-59
2021/10/04 02:22:23;;;;;;;46.78;19.38;;;;;;;6.95;79.49;101338.69;5028258;28;20041;-59
2021/10/04 02:24:48;;;;;;;46.97;18.98;;;;;;;7.13;79.18;101375.00;5029257;28;20045;-59
2021/10/04 02:27:14;;;;;;;45.95;18.67;;;;;;;7.12;78.86;101368.09;5028053;28;20045;-59
2021/10/04 02:29:40;;;;;;;42.10;18.25;;;;;;;7.00;79.44;101357.69;5029178;28;20073;-59
2021/10/04 02:32:06;;;;;;;52.72;20.60;;;;;;;7.06;79.51;101375.84;5012983;28;20056;-59
2021/10/04 02:34:33;;;;;;;42.65;20.00;;;;;;;6.94;79.66;101365.41;5008245;28;20402;-59
2021/10/04 02:36:58;;;;;;;48.47;18.55;;;;;;;7.00;80.13;101379.25;5008034;28;20038;-60
2021/10/04 02:39:24;;;;;;;43.80;18.60;;;;;;;6.99;80.00;101379.22;5007179;28;20647;-60
2021/10/04 02:41:50;;;;;;;45.47;19.50;;;;;;;7.01;80.30;101378.41;5009065;28;20053;-60
2021/10/04 02:44:16;;;;;;;39.80;18.83;;;;;;;7.02;79.99;101379.22;5021878;28;20501;-61
2021/10/04 02:46:42;;;;;;;43.88;18.23;;;;;;;7.09;79.33;101379.31;5017118;28;20066;-60
2021/10/04 02:49:07;;;;;;;40.85;18.02;;;;;;;7.07;79.01;101367.19;5016150;28;20045;-60
2021/10/04 02:51:33;;;;;;;40.05;17.23;;;;;;;7.11;79.21;101369.84;5027359;28;20128;-60
2021/10/04 02:53:59;;;;;;;53.40;18.45;;;;;;;7.27;78.90;101375.97;5028984;28;20041;-59
2021/10/04 02:56:25;;;;;;;50.85;19.20;;;;;;;7.38;78.31;101379.47;5016573;28;20037;-60
2021/10/04 02:58:50;;;;;;;44.85;17.42;;;;;;;7.47;78.08;101378.69;5009124;28;20042;-59
2021/10/04 03:01:17;;;;;;;42.35;16.88;;;;;;;7.35;77.79;101353.59;5013017;28;20403;-58
2021/10/04 03:03:42;;;;;;;46.67;18.15;;;;;;;7.56;77.91;101379.59;5017511;28;20045;-58
2021/10/04 03:06:08;;;;;;;41.38;18.50;;;;;;;7.63;77.45;101372.72;5032744;28;20034;-58
2021/10/04 03:08:33;;;;;;;36.33;17.48;;;;;;;7.71;77.22;101375.31;5020608;28;20056;-59
2021/10/04 03:10:59;;;;;;;34.60;15.10;;;;;;;7.79;76.34;101376.25;5028050;28;20528;-59
2021/10/04 03:13:25;;;;;;;43.13;19.23;;;;;;;7.85;75.66;101377.09;5011603;28;20038;-59
2021/10/04 03:15:51;;;;;;;40.28;17.42;;;;;;;7.82;75.73;101358.13;5012705;28;20068;-59
2021/10/04 03:18:16;;;;;;;37.15;17.10;;;;;;;7.94;75.84;101369.41;5012592;28;20509;-59
2021/10/04 03:20:42;;;;;;;53.80;18.83;;;;;;;7.95;75.57;101371.13;5013507;28;20489;-59
2021/10/04 03:23:08;;;;;;;32.30;14.80;;;;;;;8.00;75.73;101377.19;5012385;28;20037;-59
2021/10/04 03:25:34;;;;;;;41.28;16.98;;;;;;;7.98;74.65;101371.13;5011120;28;20136;-58
2021/10/04 03:28:01;;;;;;;85.03;20.98;;;;;;;8.03;75.25;101377.19;5027772;28;20092;-58
2021/10/04 03:30:26;;;;;;;108.78;23.05;;;;;;;8.04;74.93;101380.66;5012414;28;20580;-61
2021/10/04 03:32:52;;;;;;;69.80;19.48;;;;;;;8.15;75.11;101388.44;5055566;28;20140;-58
2021/10/04 03:35:18;;;;;;;51.83;19.13;;;;;;;8.17;75.11;101390.16;5031974;28;20041;-58
2021/10/04 03:37:44;;;;;;;36.85;17.10;;;;;;;8.16;75.31;101390.19;5032036;28;20041;-59
2021/10/04 03:40:11;;;;;;;45.70;18.33;;;;;;;8.16;74.71;101379.81;5032138;28;20102;-59
2021/10/04 03:42:37;;;;;;;54.70;17.25;;;;;;;8.19;74.87;101392.78;5031967;28;20079;-59
2021/10/04 03:45:03;;;;;;;104.80;22.45;;;;;;;8.22;74.38;101385.00;5019183;28;20072;-59
2021/10/04 03:47:29;;;;;;;117.43;21.85;;;;;;;8.14;74.53;101379.81;5011908;28;20105;-60
2021/10/04 03:49:54;;;;;;;92.95;20.70;;;;;;;8.24;74.35;101391.94;5012070;28;20096;-60
2021/10/04 03:52:20;;;;;;;86.20;19.48;;;;;;;8.25;74.46;101387.59;5011527;28;20049;-59
2021/10/04 03:54:46;;;;;;;48.67;18.35;;;;;;;8.27;74.84;101393.69;5011734;28;20481;-59
2021/10/04 03:57:12;;;;;;;66.78;18.17;;;;;;;8.32;74.76;101399.75;5013093;28;20134;-59
2021/10/04 03:59:38;;;;;;;49.42;18.17;;;;;;;8.37;74.28;101396.28;5016409;28;20049;-60
2021/10/04 04:02:03;;;;;;;55.17;19.40;;;;;;;8.42;74.23;101404.09;5015999;28;20037;-59
2021/10/04 04:04:29;;;;;;;71.03;18.42;;;;;;;8.44;74.16;101398.03;5014775;28;20047;-59
2021/10/04 04:06:55;;;;;;;52.40;18.42;;;;;;;8.47;74.06;101410.16;5031324;28;20050;-60
2021/10/04 04:09:21;;;;;;;66.15;18.42;;;;;;;8.52;74.36;101404.97;5030713;28;20433;-58
2021/10/04 04:11:46;;;;;;;65.47;18.42;;;;;;;8.53;74.04;101407.56;5033498;28;20128;-60
2021/10/04 04:14:12;;;;;;;56.42;19.90;;;;;;;8.49;74.53;101392.88;5040649;28;20046;-59
2021/10/04 04:16:38;;;;;;;51.00;17.63;;;;;;;8.58;74.14;101407.59;5031306;28;20046;-61
2021/10/04 04:19:04;;;;;;;51.88;17.63;;;;;;;8.59;73.22;101407.56;5031289;28;20124;-60
2021/10/04 04:21:29;;;;;;;47.58;17.50;;;;;;;8.67;73.54;101415.38;5036790;28;20049;-59
2021/10/04 04:23:55;;;;;;;49.40;17.60;;;;;;;8.67;73.28;101412.78;5031893;28;20040;-58
2021/10/04 04:26:21;;;;;;;40.70;17.77;;;;;;;8.68;73.75;101414.50;5029559;28;20064;-59
2021/10/04 04:28:47;;;;;;;42.63;17.80;;;;;;;8.70;73.42;101416.22;5031771;28;20045;-60
2021/10/04 04:31:13;;;;;;;47.70;18.02;;;;;;;8.70;73.34;101415.34;5037795;28;20033;-58
2021/10/04 04:33:38;;;;;;;41.22;17.10;;;;;;;8.67;73.20;101405.00;5030387;28;20053;-60
2021/10/04 04:36:05;;;;;;;26.23;13.68;;;;;;;8.75;72.15;101411.03;5030481;28;20148;-61
2021/10/04 04:38:31;;;;;;;39.20;16.55;;;;;;;8.78;71.41;101414.53;5030650;28;20045;-60
2021/10/04 04:40:57;;;;;;;29.77;14.00;;;;;;;8.68;70.86;101394.63;5032874;28;20528;-61
2021/10/04 04:43:22;;;;;;;36.20;14.50;;;;;;;8.87;70.35;101411.94;5036146;28;20424;-60
2021/10/04 04:45:48;;;;;;;50.08;18.35;;;;;;;8.89;70.74;101419.72;5029106;28;20149;-61
2021/10/04 04:48:14;;;;;;;34.05;16.38;;;;;;;8.96;71.23;101418.81;5034590;28;20041;-62
2021/10/04 04:50:40;;;;;;;37.55;16.02;;;;;;;9.02;70.87;101424.03;5034070;28;20067;-62
2021/10/04 04:53:06;;;;;;;36.67;15.30;;;;;;;9.11;70.58;101426.59;5010977;28;20132;-62
2021/10/04 04:55:31;;;;;;;30.77;14.68;;;;;;;9.17;70.46;101417.94;5030988;28;20079;-62
2021/10/04 04:57:57;;;;;;;34.70;15.00;;;;;;;9.18;70.63;101423.16;5027906;28;20053;-61
2021/10/04 05:00:23;;;;;;;26.17;12.25;;;;;;;9.21;69.78;101430.09;5029995;28;20041;-62
2021/10/04 05:02:49;;;;;;;25.10;12.13;;;;;;;9.21;68.06;101430.91;5038799;28;20037;-62
2021/10/04 05:05:16;;;;;;;22.80;11.52;;;;;;;9.19;67.09;101424.03;5028807;28;20076;-62
2021/10/04 05:07:42;;;;;;;29.10;12.65;;;;;;;9.13;65.74;101429.22;5031537;28;20046;-63
2021/10/04 05:10:09;;;;;;;29.50;12.45;;;;;;;9.16;65.90;101429.22;5045532;28;20480;-63
2021/10/04 05:12:35;;;;;;;24.00;11.93;;;;;;;9.33;66.08;101430.91;5042044;28;20043;-60
2021/10/04 05:15:01;;;;;;;23.67;11.40;;;;;;;9.30;65.34;101399.78;5049603;28;20036;-63
2021/10/04 05:17:28;;;;;;;25.27;10.82;;;;;;;9.42;64.10;101431.78;5045533;28;20057;-62
2021/10/04 05:19:53;;;;;;;25.27;10.20;;;;;;;9.38;63.95;101435.22;5028983;28;20059;-63
2021/10/04 05:22:19;;;;;;;19.65;10.02;;;;;;;9.39;63.90;101432.63;5029667;28;20038;-64
2021/10/04 05:24:46;;;;;;;20.70;9.95;;;;;;;9.45;63.25;101436.97;5011059;28;20041;-62
2021/10/04 05:27:11;;;;;;;19.85;9.55;;;;;;;9.70;62.02;101434.31;5022977;28;20535;-63
2021/10/04 05:29:38;;;;;;;20.77;9.85;;;;;;;10.03;62.00;101433.34;5029107;28;20049;-64
2021/10/04 05:32:05;;;;;;;20.85;9.45;;;;;;;10.34;60.31;101420.22;5037229;28;20044;-50
2021/10/04 05:34:31;;;;;;;19.55;9.60;;;;;;;11.09;57.97;101438.78;5042610;28;20049;-62
2021/10/04 05:36:57;;;;;;;17.48;8.93;;;;;;;11.69;56.05;101438.16;5020067;28;20071;-59
2021/10/04 05:39:23;;;;;;;21.80;9.95;;;;;;;12.07;54.47;101439.50;5008534;28;20061;-61
2021/10/04 05:41:49;;;;;;;23.63;9.52;;;;;;;12.66;53.12;101434.34;5009457;28;20037;-64
2021/10/04 05:44:15;;;;;;;18.73;9.60;;;;;;;13.22;50.92;101442.19;5010071;28;20041;-63
2021/10/04 05:46:41;;;;;;;20.83;9.88;;;;;;;13.79;49.85;101441.13;5017253;28;20061;-61
2021/10/04 05:49:06;;;;;;;19.00;8.80;;;;;;;14.17;48.21;101434.25;5029656;28;20151;-61
2021/10/04 05:51:32;;;;;;;19.80;9.88;;;;;;;14.64;47.20;101439.34;5028267;28;20045;-62
2021/10/04 05:53:58;;;;;;;20.58;9.52;;;;;;;14.87;45.52;101444.03;5029605;28;20080;-69
2021/10/04 05:56:24;;;;;;;20.30;10.55;;;;;;;15.01;45.36;101436.72;5024313;28;20525;-67
2021/10/04 05:58:49;;;;;;;21.63;9.43;;;;;;;15.25;44.73;101443.09;4991898;28;20745;-63
2021/10/04 06:01:15;;;;;;;19.45;9.63;;;;;;;15.70;43.90;101442.81;5043048;28;20525;-63
2021/10/04 06:03:41;;;;;;;19.25;10.02;;;;;;;16.40;42.85;101441.63;5030378;28;20040;-63
2021/10/04 06:06:06;;;;;;;15.80;9.38;;;;;;;17.17;41.67;101443.56;5030666;28;20045;-66
2021/10/04 06:08:32;;;;;;;21.25;10.10;;;;;;;17.66;39.86;101432.25;5034661;28;20046;-63
2021/10/04 06:10:58;;;;;;;18.85;9.90;;;;;;;17.95;39.31;101437.31;5010407;28;20037;-64
2021/10/04 06:13:24;;;;;;;20.70;10.45;;;;;;;18.37;38.49;101436.63;5009186;28;20034;-64
2021/10/04 06:15:49;;;;;;;18.52;9.95;;;;;;;18.47;37.62;101435.38;5011369;28;20100;-65
2021/10/04 06:18:15;;;;;;;19.13;9.90;;;;;;;18.94;36.86;101438.75;5036242;28;20712;-64
2021/10/04 06:20:42;;;;;;;17.52;10.27;;;;;;;19.32;36.10;101430.09;5046871;28;20094;-66
2021/10/04 06:23:08;;;;;;;16.58;9.35;;;;;;;19.79;35.05;101443.03;5009500;28;20132;-58
2021/10/04 06:25:34;;;;;;;17.33;10.40;;;;;;;19.96;34.49;101444.91;5017484;28;20068;-51
2021/10/04 06:28:00;;;;;;;17.98;9.88;;;;;;;20.33;34.15;101433.56;5025806;28;20038;-54
2021/10/04 06:30:26;;;;;;;15.68;10.00;;;;;;;21.01;32.85;101440.81;5014975;28;20425;-66
2021/10/04 06:32:52;;;;;;;15.48;9.90;;;;;;;20.85;32.35;101432.78;5033036;28;20125;-57
2021/10/04 06:35:17;;;;;;;18.52;10.20;;;;;;;20.57;32.83;101438.53;5010378;28;20038;-58
2021/10/04 06:37:43;;;;;;;17.95;9.32;;;;;;;21.23;32.39;101449.44;5020783;28;20132;-58
2021/10/04 06:40:10;;;;;;;17.13;9.38;;;;;;;21.44;32.11;101442.19;5005559;28;20038;-54
2021/10/04 06:42:36;;;;;;;19.33;9.75;;;;;;;21.48;31.91;101449.88;5031451;28;20045;-53
2021/10/04 06:45:03;;;;;;;14.35;8.13;;;;;;;21.52;31.41;101437.34;5015998;28;20044;-50
2021/10/04 06:47:28;;;;;;;12.75;8.07;;;;;;;21.36;31.10;101445.19;5027932;28;20509;-54
2021/10/04 06:49:54;;;;;;;14.38;7.78;;;;;;;21.04;31.26;101452.09;5013123;28;20046;-51
2021/10/04 06:52:20;;;;;;;12.80;8.00;;;;;;;20.84;31.82;101440.78;5027950;28;20038;-47
2021/10/04 06:54:46;;;;;;;16.08;8.38;;;;;;;20.87;31.34;101444.16;5011840;28;20042;-54
2021/10/04 06:57:11;;;;;;;19.42;8.85;;;;;;;21.11;31.17;101442.91;5012694;28;20140;-54
2021/10/04 06:59:37;;;;;;;13.30;9.00;;;;;;;22.00;30.18;101446.31;5012239;28;20045;-49
2021/10/04 07:02:03;;;;;;;13.88;8.82;;;;;;;22.54;29.44;101450.41;5027654;28;20469;-50
2021/10/04 07:04:29;;;;;;;14.52;8.73;;;;;;;23.21;28.57;101456.22;5011389;28;20042;-54
2021/10/04 07:06:55;;;;;;;15.40;8.80;;;;;;;23.49;27.97;101454.63;5012603;28;20052;-51
2021/10/04 07:09:21;;;;;;;19.27;12.50;;;;;;;24.33;27.04;101460.97;5012588;28;20042;-53
2021/10/04 07:11:47;;;;;;;16.02;9.55;;;;;;;25.01;26.07;101458.31;5012679;28;20049;-50
2021/10/04 07:14:12;;;;;;;12.48;9.23;;;;;;;25.19;26.21;101455.28;5012256;28;20076;-52
2021/10/04 07:16:38;;;;;;;18.30;9.07;;;;;;;24.53;25.88;101460.53;5026595;28;20048;-54
2021/10/04 07:19:04;;;;;;;16.80;8.98;;;;;;;24.18;26.30;101449.47;5032138;28;20171;-51
2021/10/04 07:21:31;;;;;;;16.02;9.75;;;;;;;23.18;26.80;101450.25;5030590;28;20597;-52
2021/10/04 07:23:57;;;;;;;15.60;10.82;;;;;;;22.68;27.87;101461.06;5032006;28;20041;-53
2021/10/04 07:26:23;;;;;;;15.10;10.27;;;;;;;22.58;28.11;101452.78;5017966;28;20052;-55
2021/10/04 07:28:50;;;;;;;16.98;10.15;;;;;;;22.43;28.38;101448.34;5027426;28;20532;-49
2021/10/04 07:31:17;;;;;;;15.40;9.95;;;;;;;22.49;28.60;101448.00;5012216;28;20073;-49
2021/10/04 07:33:44;;;;;;;18.20;11.25;;;;;;;21.87;28.99;101449.59;5011805;28;20498;-50
2021/10/04 07:36:09;;;;;;;16.15;11.10;;;;;;;21.84;29.11;101452.41;5012686;28;20041;-52
2021/10/04 07:38:36;;;;;;;14.98;10.10;;;;;;;22.43;28.46;101453.63;5010491;28;20069;-50
2021/10/04 07:41:04;;;;;;;16.08;11.75;;;;;;;22.15;28.65;101450.78;5010369;28;20045;-53
2021/10/04 07:43:31;;;;;;;15.13;10.52;;;;;;;21.81;29.10;101449.94;5010509;28;20053;-52
2021/10/04 07:45:57;;;;;;;14.88;10.93;;;;;;;21.78;29.14;101457.16;5012710;28;20052;-52
2021/10/04 07:48:24;;;;;;;16.17;10.43;;;;;;;21.59;29.26;101449.31;5009858;28;20115;-50
2021/10/04 07:50:50;;;;;;;16.00;10.57;;;;;;;22.36;28.69;101450.47;5010974;28;20034;-50
2021/10/04 07:53:16;;;;;;;18.00;10.88;;;;;;;23.03;27.83;101443.19;5012060;28;20532;-50
2021/10/04 07:55:41;;;;;;;16.45;10.43;;;;;;;23.27;27.16;101438.22;4994392;28;20522;-53
2021/10/04 07:58:07;;;;;;;14.68;11.00;;;;;;;23.13;27.09;101447.84;5026804;28;20577;-52
2021/10/04 08:00:33;;;;;;;17.23;12.73;;;;;;;23.20;27.00;101443.03;5023522;28;20048;-49
2021/10/04 08:02:59;;;;;;;18.05;10.60;;;;;;;23.34;26.91;101442.25;5030373;28;20493;-52
2021/10/04 08:05:25;;;;;;;16.23;10.65;;;;;;;23.21;27.23;101444.75;5031292;28;20044;-52
2021/10/04 08:07:51;;;;;;;16.50;10.95;;;;;;;22.68;27.56;101443.38;5030190;28;20045;-54
2021/10/04 08:10:17;;;;;;;21.05;11.38;;;;;;;23.02;27.54;101445.00;5030944;28;20366;-54
2021/10/04 08:12:43;;;;;;;16.63;10.10;;;;;;;23.41;27.05;101449.72;5015528;28;20422;-50
2021/10/04 08:15:11;;;;;;;13.45;10.45;;;;;;;23.01;26.88;101448.59;5011295;28;20045;-51
2021/10/04 08:17:37;;;;;;;17.20;9.82;;;;;;;22.07;28.05;101445.91;5009902;28;20494;-49
2021/10/04 08:20:05;;;;;;;16.23;10.35;;;;;;;21.26;28.82;101448.41;5026391;28;20464;-53
2021/10/04 08:22:32;;;;;;;17.05;10.77;;;;;;;21.41;29.17;101453.75;5026458;28;20037;-53
2021/10/04 08:24:58;;;;;;;17.45;10.93;;;;;;;21.50;28.83;101444.53;5010968;28;20136;-50
2021/10/04 08:27:24;;;;;;;14.07;10.57;;;;;;;21.71;28.95;101454.00;5011706;28;20522;-54
2021/10/04 08:29:50;;;;;;;16.38;10.57;;;;;;;22.19;29.00;101447.88;5029438;28;20072;-54
2021/10/04 08:32:15;;;;;;;14.32;9.90;;;;;;;22.87;28.35;101448.53;5009144;28;20045;-52
2021/10/04 08:34:41;;;;;;;15.05;10.18;;;;;;;22.93;27.69;101457.91;5026070;28;20061;-54
2021/10/04 08:37:07;;;;;;;19.67;12.15;;;;;;;23.07;27.46;101453.53;5010860;28;20041;-50
2021/10/04 08:39:33;;;;;;;15.57;10.73;;;;;;;23.87;26.78;101455.78;5009342;28;20089;-48
2021/10/04 08:41:59;;;;;;;18.55;11.98;;;;;;;24.07;26.02;101457.25;5015599;28;20037;-50
2021/10/04 08:44:26;;;;;;;17.10;11.98;;;;;;;23.21;26.94;101455.38;5030450;28;20048;-52
2021/10/04 08:46:51;;;;;;;18.38;11.98;;;;;;;23.95;26.21;101458.84;5028914;28;20099;-50
2021/10/04 08:49:18;;;;;;;19.40;12.55;;;;;;;24.69;25.32;101463.06;5029116;28;20121;-49
2021/10/04 08:51:46;;;;;;;17.67;13.07;;;;;;;24.81;25.30;101456.91;5027367;28;20053;-52
2021/10/04 08:54:13;;;;;;;24.15;13.88;;;;;;;24.51;26.05;101462.44;5009364;28;20049;-49
2021/10/04 08:56:41;;;;;;;20.85;12.60;;;;;;;23.14;26.75;101454.88;5009336;28;20592;-51
2021/10/04 08:59:06;;;;;;;20.58;15.10;;;;;;;23.47;26.52;101465.34;5009874;28;20522;-51
2021/10/04 09:01:34;;;;;;;19.25;13.57;;;;;;;23.99;25.78;101460.38;5030301;28;20048;-50
2021/10/04 09:04:02;;;;;;;20.92;14.60;;;;;;;24.53;25.50;101457.03;5026422;28;20092;-53
2021/10/04 09:06:32;;;;;;;27.02;15.23;;;;;;;25.36;24.63;101467.47;5028870;28;20099;-54
2021/10/04 09:09:12;;;;;;;22.55;13.52;;;;;;;24.83;24.85;101433.72;5012294;28;20052;-51
2021/10/04 09:11:39;;;;;;;21.20;14.18;;;;;;;24.86;24.98;101457.50;5029981;28;20037;-53
2021/10/04 09:14:18;;;;;;;24.23;14.18;;;;;;;23.54;26.21;101460.53;5013096;28;20049;-53
2021/10/04 09:16:49;;;;;;;27.00;15.25;;;;;;;21.94;28.20;101452.78;5010120;28;20042;-51
2021/10/04 09:19:31;;;;;;;23.25;15.32;;;;;;;22.10;28.59;101451.03;5010096;28;20060;-51
2021/10/04 09:22:10;;;;;;;20.33;13.90;;;;;;;21.86;28.74;101462.91;5009278;28;20048;-51
2021/10/04 09:24:38;;;;;;;21.75;14.52;;;;;;;21.29;29.13;101456.19;5017517;28;20041;-51
2021/10/04 09:27:22;;;;;;;21.33;14.15;;;;;;;20.56;30.14;101451.84;5010054;28;20076;-53
2021/10/04 09:29:49;;;;;;;22.73;13.95;;;;;;;19.86;31.35;101457.69;5025009;28;20050;-53
2021/10/04 09:32:24;;;;;;;22.98;13.52;;;;;;;19.53;32.38;101448.59;5009588;28;20044;-51
2021/10/04 09:34:50;;;;;;;17.85;12.50;;;;;;;19.28;32.49;101454.88;5016235;28;20626;-53
2021/10/04 09:37:25;;;;;;;20.58;12.35;;;;;;;19.55;32.04;101459.94;5013392;28;20046;-51
2021/10/04 09:39:51;;;;;;;20.33;11.93;;;;;;;20.92;30.38;101460.63;4992488;28;20497;-53
2021/10/04 09:42:18;;;;;;;21.35;12.00;;;;;;;22.38;28.32;101459.19;5008619;28;20161;-50
2021/10/04 09:44:50;;;;;;;21.15;12.23;;;;;;;23.39;27.00;101464.06;5025164;28;20045;-51
2021/10/04 09:47:20;;;;;;;17.23;12.13;;;;;;;23.86;26.44;101455.91;5024956;28;20068;-53
2021/10/04 09:49:58;;;;;;;13.05;10.13;;;;;;;23.78;26.02;101456.38;5010017;28;20060;-54
2021/10/04 09:52:39;;;;;;;15.60;10.55;;;;;;;23.11;26.51;101452.41;5008337;28;20425;-50
2021/10/04 09:55:17;;;;;;;21.08;11.43;;;;;;;23.42;26.01;101456.75;5009910;28;20516;-52
2021/10/04 09:57:43;;;;;;;16.45;10.13;;;;;;;24.04;25.24;101460.06;5042301;28;20052;-53
2021/10/04 10:00:13;;;;;;;15.35;10.32;;;;;;;24.97;24.67;101446.16;5025541;28;20065;-50
2021/10/04 10:02:40;;;;;;;21.58;11.23;;;;;;;26.13;23.52;101431.88;5029064;28;20052;-51
2021/10/04 10:05:07;;;;;;;16.88;9.90;;;;;;;26.38;23.00;101457.69;5028115;28;20608;-50
2021/10/04 10:07:32;;;;;;;14.30;10.05;;;;;;;25.38;23.54;101465.56;5016237;28;20069;-50
2021/10/04 10:09:58;;;;;;;18.23;11.02;;;;;;;25.35;23.79;101460.41;5008665;28;20098;-51
2021/10/04 10:12:24;;;;;;;19.42;11.40;;;;;;;25.44;23.54;101464.25;5028380;28;20076;-52
2021/10/04 10:14:50;;;;;;;12.15;8.70;;;;;;;23.82;24.67;101465.84;5013250;28;20037;-51
2021/10/04 10:17:28;;;;;;;12.55;9.18;;;;;;;21.54;26.71;101444.28;5021884;28;20068;-52
2021/10/04 10:19:56;;;;;;;16.27;9.48;;;;;;;20.43;28.46;101470.03;5033026;28;20048;-53
2021/10/04 10:22:28;;;;;;;16.47;9.63;;;;;;;19.63;29.83;101460.47;5033035;28;20222;-52
2021/10/04 10:24:56;;;;;;;18.33;10.38;;;;;;;19.22;30.55;101456.91;5031698;28;20516;-50
2021/10/04 10:27:38;;;;;;;15.23;9.43;;;;;;;19.20;30.88;101451.72;5022599;28;20041;-52
2021/10/04 10:30:18;;;;;;;15.38;9.95;;;;;;;18.68;31.55;101455.63;5012883;28;20059;-51
2021/10/04 10:32:44;;;;;;;13.00;9.73;;;;;;;17.97;32.68;101434.63;5012811;28;20046;-50
2021/10/04 10:35:10;;;;;;;14.93;10.43;;;;;;;17.58;33.52;101431.66;5012883;28;20128;-58
2021/10/04 10:37:50;;;;;;;16.83;9.45;;;;;;;17.42;33.83;101455.00;5022090;28;20049;-52
2021/10/04 10:40:18;;;;;;;13.90;9.38;;;;;;;17.69;33.54;101448.78;5030848;28;20057;-50
2021/10/04 10:43:05;;;;;;;18.80;9.48;;;;;;;19.16;31.46;101449.25;5032349;28;20033;-51
2021/10/04 10:45:50;;;;;;;15.75;10.60;;;;;;;18.81;31.86;101434.91;5032295;28;20495;-53
2021/10/04 10:48:17;;;;;;;19.23;9.80;;;;;;;18.18;32.83;101432.06;5017242;28;20038;-53
2021/10/04 10:50:47;;;;;;;16.15;9.80;;;;;;;17.77;33.60;101459.03;5027292;28;20124;-50
2021/10/04 10:53:17;;;;;;;16.73;10.65;;;;;;;17.36;34.77;101453.44;5012332;28;20041;-54
2021/10/04 10:55:53;;;;;;;17.48;10.45;;;;;;;18.46;33.44;101442.41;5012272;28;20065;-54
2021/10/04 10:58:24;;;;;;;15.15;10.48;;;;;;;19.35;32.12;101445.81;5025606;28;20067;-56
2021/10/04 11:00:50;;;;;;;16.65;10.90;;;;;;;20.43;30.62;101450.69;5011341;28;20111;-52
2021/10/04 11:03:22;;;;;;;16.83;10.15;;;;;;;20.85;30.09;101448.63;5012209;28;20038;-52
2021/10/04 11:05:51;;;;;;;19.20;11.65;;;;;;;20.68;30.08;101456.53;5011212;28;20406;-54
2021/10/04 11:08:29;;;;;;;16.95;10.48;;;;;;;21.14;29.07;101448.06;5024520;28;20266;-54
2021/10/04 11:10:57;;;;;;;16.17;10.52;;;;;;;21.90;28.30;101437.97;5032052;28;20045;-54
2021/10/04 11:13:28;;;;;;;16.48;10.32;;;;;;;22.36;27.53;101436.34;5013782;28;20079;-51